createdAt,value
2019-03-13T00:01:43.527Z,99461.55
2019-03-13T00:04:13.896Z,99458.66
2019-03-13T00:06:44.273Z,99454.72
2019-03-13T00:09:15.811Z,99454.48
2019-03-13T00:11:46.308Z,99451.28
2019-03-13T00:14:19.756Z,99449.36
2019-03-13T00:16:50.170Z,99449.01
2019-03-13T00:19:20.414Z,99437.67
2019-03-13T00:21:51.613Z,99437.67
2019-03-13T00:24:23.614Z,99436.81
2019-03-13T00:26:54.008Z,99435.05
2019-03-13T00:29:24.425Z,99437.67
2019-03-13T00:31:55.824Z,99437.55
2019-03-13T00:34:26.204Z,99442.56
2019-03-13T00:36:56.594Z,99441.48
2019-03-13T00:39:27.052Z,99422.50
2019-03-13T00:41:57.466Z,99440.05
2019-03-13T00:44:27.841Z,99438.63
2019-03-13T00:46:58.230Z,99430.75
2019-03-13T00:49:28.600Z,99432.38
2019-03-13T00:51:59.408Z,99433.22
2019-03-13T00:54:29.772Z,99430.36
2019-03-13T00:57:00.148Z,99425.62
2019-03-13T00:59:30.541Z,99429.10
2019-03-13T01:02:13.730Z,99426.36
2019-03-13T01:04:45.680Z,99426.24
2019-03-13T01:07:17.579Z,99437.31
2019-03-13T01:09:49.482Z,99436.92
2019-03-13T01:12:21.233Z,99429.52
2019-03-13T01:14:51.709Z,99439.48
2019-03-13T01:17:23.754Z,99431.80
2019-03-13T01:19:54.595Z,99431.80
2019-03-13T01:22:25.857Z,99437.55
2019-03-13T01:24:56.281Z,99427.55
2019-03-13T01:27:26.691Z,99423.01
2019-03-13T01:29:58.093Z,99436.16
2019-03-13T01:32:46.590Z,99432.45
2019-03-13T01:35:21.218Z,99437.94
2019-03-13T01:37:51.524Z,99445.26
2019-03-13T01:40:21.828Z,99445.26
2019-03-13T01:42:52.202Z,99441.70
2019-03-13T01:45:22.575Z,99439.80
2019-03-13T01:47:53.015Z,99441.00
2019-03-13T01:50:23.398Z,99444.22
2019-03-13T01:52:53.795Z,99444.83
2019-03-13T01:55:24.188Z,99453.30
2019-03-13T01:57:54.643Z,99459.87
2019-03-13T02:00:25.027Z,99456.88
2019-03-13T02:02:55.399Z,99452.95
2019-03-13T02:05:25.827Z,99448.16
2019-03-13T02:07:56.247Z,99460.45
2019-03-13T02:10:26.623Z,99461.42
2019-03-13T02:12:57.029Z,99459.73
2019-03-13T02:15:29.155Z,99463.06
2019-03-13T02:17:59.585Z,99463.77
2019-03-13T02:20:29.985Z,99461.03
2019-03-13T02:23:00.395Z,99461.85
2019-03-13T02:25:30.765Z,99462.70
2019-03-13T02:28:01.133Z,99460.54
2019-03-13T02:30:32.457Z,99457.91
2019-03-13T02:33:02.881Z,99456.60
2019-03-13T02:35:33.286Z,99453.59
2019-03-13T02:38:03.686Z,99445.23
2019-03-13T02:40:34.051Z,99442.34
2019-03-13T02:43:04.417Z,99442.34
2019-03-13T02:45:34.833Z,99448.62
2019-03-13T02:48:05.264Z,99451.13
2019-03-13T02:50:35.688Z,99446.91
2019-03-13T02:53:06.080Z,99446.91
2019-03-13T02:55:36.492Z,99450.89
2019-03-13T02:58:06.889Z,99458.59
2019-03-13T03:00:44.856Z,99457.05
2019-03-13T03:03:19.916Z,99457.05
2019-03-13T03:05:50.291Z,99460.24
2019-03-13T03:08:20.669Z,99469.08
2019-03-13T03:10:51.051Z,99465.84
2019-03-13T03:13:21.445Z,99471.31
2019-03-13T03:15:51.856Z,99462.97
2019-03-13T03:18:22.244Z,99471.59
2019-03-13T03:20:52.677Z,99465.88
2019-03-13T03:23:23.048Z,99466.70
2019-03-13T03:25:53.435Z,99480.09
2019-03-13T03:28:23.793Z,99491.95
2019-03-13T03:30:54.186Z,99472.73
2019-03-13T03:33:24.622Z,99488.25
2019-03-13T03:35:54.969Z,99478.22
2019-03-13T03:38:25.340Z,99486.13
2019-03-13T03:40:55.745Z,99479.80
2019-03-13T03:43:39.335Z,99481.23
2019-03-13T03:45:58.228Z,99475.13
2019-03-13T03:48:28.643Z,99479.91
2019-03-13T03:50:59.006Z,99479.56
2019-03-13T03:53:29.398Z,99488.59
2019-03-13T03:56:01.321Z,99483.84
2019-03-13T03:58:31.692Z,99487.00
2019-03-13T04:01:02.078Z,99488.11
2019-03-13T04:03:32.483Z,99488.11
2019-03-13T04:06:02.863Z,99489.03
2019-03-13T04:08:37.415Z,99497.34
2019-03-13T04:11:05.311Z,99498.52
2019-03-13T04:13:35.697Z,99506.16
2019-03-13T04:16:06.099Z,99494.36
2019-03-13T04:18:36.443Z,99494.36
2019-03-13T04:21:06.852Z,99499.11
2019-03-13T04:23:37.114Z,99498.31
2019-03-13T04:26:07.486Z,99503.73
2019-03-13T04:28:37.829Z,99501.64
2019-03-13T04:31:08.210Z,99497.53
2019-03-13T04:33:38.598Z,99497.53
2019-03-13T04:36:08.980Z,99510.55
2019-03-13T04:38:39.340Z,99511.30
2019-03-13T04:41:09.782Z,99514.92
2019-03-13T04:43:40.148Z,99518.87
2019-03-13T04:46:10.531Z,99526.31
2019-03-13T04:48:40.871Z,99529.06
2019-03-13T04:51:11.271Z,99527.59
2019-03-13T04:53:41.631Z,99527.59
2019-03-13T04:56:11.985Z,99537.74
2019-03-13T04:58:42.330Z,99539.55
2019-03-13T05:01:12.717Z,99537.86
2019-03-13T05:03:43.103Z,99542.64
2019-03-13T05:06:16.635Z,99550.70
2019-03-13T05:08:47.324Z,99557.31
2019-03-13T05:11:17.698Z,99565.69
2019-03-13T05:13:48.070Z,99562.11
2019-03-13T05:16:18.437Z,99570.83
2019-03-13T05:18:48.809Z,99568.05
2019-03-13T05:21:19.178Z,99567.70
2019-03-13T05:23:49.562Z,99569.23
2019-03-13T05:26:19.912Z,99567.20
2019-03-13T05:28:50.299Z,99568.91
2019-03-13T05:31:20.655Z,99571.38
2019-03-13T05:33:51.010Z,99576.39
2019-03-13T05:36:21.390Z,99576.52
2019-03-13T05:38:51.748Z,99578.91
2019-03-13T05:41:22.150Z,99568.17
2019-03-13T05:43:52.534Z,99582.61
2019-03-13T05:46:22.914Z,99575.78
2019-03-13T05:48:53.294Z,99568.59
2019-03-13T05:51:25.303Z,99568.86
2019-03-13T05:53:55.670Z,99565.08
2019-03-13T05:56:26.040Z,99578.35
2019-03-13T05:58:56.443Z,99577.50
2019-03-13T06:01:26.859Z,99569.39
2019-03-13T06:03:57.240Z,99567.98
2019-03-13T06:06:27.644Z,99579.80
2019-03-13T06:08:58.045Z,99574.90
2019-03-13T06:11:28.398Z,99579.92
2019-03-13T06:13:58.779Z,99581.70
2019-03-13T06:16:29.186Z,99587.91
2019-03-13T06:18:59.585Z,99595.56
2019-03-13T06:21:29.978Z,99594.15
2019-03-13T06:24:00.369Z,99600.96
2019-03-13T06:26:32.455Z,99600.36
2019-03-13T06:29:04.428Z,99602.02
2019-03-13T06:31:34.785Z,99615.62
2019-03-13T06:34:05.184Z,99617.99
2019-03-13T06:36:35.572Z,99612.41
2019-03-13T06:39:07.239Z,99621.38
2019-03-13T06:41:37.636Z,99620.63
2019-03-13T06:44:08.044Z,99632.30
2019-03-13T06:46:38.438Z,99630.13
2019-03-13T06:49:08.827Z,99638.35
2019-03-13T06:51:39.211Z,99632.95
2019-03-13T06:54:09.556Z,99632.95
2019-03-13T06:56:39.972Z,99634.41
2019-03-13T06:59:13.551Z,99640.52
2019-03-13T07:02:01.927Z,99631.98
2019-03-13T07:04:49.946Z,99626.02
2019-03-13T07:07:36.716Z,99629.65
2019-03-13T07:10:10.679Z,99630.23
2019-03-13T07:12:45.803Z,99621.73
2019-03-13T07:15:17.811Z,99628.91
2019-03-13T07:17:49.772Z,99627.56
2019-03-13T07:20:21.840Z,99624.44
2019-03-13T07:22:53.775Z,99619.92
2019-03-13T07:25:25.768Z,99618.11
2019-03-13T07:28:12.902Z,99613.02
2019-03-13T07:30:51.757Z,99620.54
2019-03-13T07:33:23.720Z,99629.64
2019-03-13T07:35:58.518Z,99621.98
2019-03-13T07:38:46.395Z,99626.05
2019-03-13T07:41:18.376Z,99633.65
2019-03-13T07:43:56.028Z,99632.58
2019-03-13T07:46:27.974Z,99632.77
2019-03-13T07:49:02.931Z,99634.59
2019-03-13T07:51:46.638Z,99624.53
2019-03-13T07:54:24.311Z,99630.50
2019-03-13T07:57:14.117Z,99623.16
2019-03-13T07:59:48.766Z,99629.73
2019-03-13T08:02:36.696Z,99627.52
2019-03-13T08:05:27.698Z,99619.11
2019-03-13T08:08:05.362Z,99627.08
2019-03-13T08:10:45.862Z,99623.55
2019-03-13T08:13:20.514Z,99620.38
2019-03-13T08:15:52.377Z,99627.37
2019-03-13T08:18:27.276Z,99624.14
2019-03-13T08:20:59.236Z,99624.37
2019-03-13T08:23:46.097Z,99616.47
2019-03-13T08:26:17.998Z,99609.03
2019-03-13T08:28:55.596Z,99617.06
2019-03-13T08:31:31.527Z,99625.96
2019-03-13T08:34:15.312Z,99620.83
2019-03-13T08:37:05.648Z,99622.44
2019-03-13T08:39:37.472Z,99626.02
2019-03-13T08:42:21.393Z,99631.95
2019-03-13T08:45:05.206Z,99623.98
2019-03-13T08:47:55.359Z,99627.45
2019-03-13T08:50:30.160Z,99635.52
2019-03-13T08:53:02.026Z,99635.70
2019-03-13T08:55:36.884Z,99627.16
2019-03-13T08:58:11.498Z,99624.39
2019-03-13T09:00:43.352Z,99627.42
2019-03-13T09:03:15.897Z,99636.89
2019-03-13T09:05:59.304Z,99629.34
2019-03-13T09:08:49.389Z,99623.73
2019-03-13T09:11:24.216Z,99625.30
2019-03-13T09:13:56.049Z,99630.53
2019-03-13T09:16:33.604Z,99627.95
2019-03-13T09:19:11.539Z,99623.75
2019-03-13T09:21:59.867Z,99630.70
2019-03-13T09:24:34.665Z,99640.95
2019-03-13T09:27:06.501Z,99632.91
2019-03-13T09:29:38.561Z,99639.92
2019-03-13T09:32:25.671Z,99635.80
2019-03-13T09:35:03.309Z,99637.84
2019-03-13T09:37:41.186Z,99638.31
2019-03-13T09:40:28.367Z,99634.55
2019-03-13T09:43:00.233Z,99640.55
2019-03-13T09:45:32.118Z,99638.84
2019-03-13T09:48:04.055Z,99634.69
2019-03-13T09:50:36.059Z,99635.01
2019-03-13T09:53:07.899Z,99638.38
2019-03-13T09:55:45.421Z,99639.44
2019-03-13T09:58:23.046Z,99623.98
2019-03-13T10:00:57.651Z,99629.87
2019-03-13T10:03:29.593Z,99632.55
2019-03-13T10:06:01.586Z,99630.66
2019-03-13T10:08:51.408Z,99625.78
2019-03-13T10:11:41.489Z,99632.01
2019-03-13T10:14:13.467Z,99633.06
2019-03-13T10:16:54.396Z,99628.61
2019-03-13T10:19:43.340Z,99628.18
2019-03-13T10:22:31.648Z,99625.87
2019-03-13T10:25:12.703Z,99625.02
2019-03-13T10:27:47.555Z,99626.92
2019-03-13T10:30:19.411Z,99621.38
2019-03-13T10:33:07.374Z,99617.22
2019-03-13T10:35:51.603Z,99625.88
2019-03-13T10:38:23.440Z,99625.59
2019-03-13T10:40:55.379Z,99622.68
2019-03-13T10:43:45.435Z,99627.17
2019-03-13T10:46:18.308Z,99621.25
2019-03-13T10:48:58.025Z,99614.64
2019-03-13T10:51:32.612Z,99622.63
2019-03-13T10:54:04.469Z,99614.95
2019-03-13T10:56:36.344Z,99620.53
2019-03-13T10:59:08.329Z,99621.51
2019-03-13T11:01:43.212Z,99623.75
2019-03-13T11:04:18.090Z,99628.52
2019-03-13T11:06:58.914Z,99636.43
2019-03-13T11:09:37.800Z,99633.02
2019-03-13T11:12:09.644Z,99624.57
2019-03-13T11:14:59.562Z,99618.86
2019-03-13T11:17:43.712Z,99617.12
2019-03-13T11:20:15.509Z,99619.20
2019-03-13T11:22:47.473Z,99618.94
2019-03-13T11:25:19.324Z,99629.59
2019-03-13T11:28:03.107Z,99630.84
2019-03-13T11:30:38.091Z,99633.58
2019-03-13T11:33:09.927Z,99639.41
2019-03-13T11:35:56.743Z,99633.44
2019-03-13T11:38:28.561Z,99633.45
2019-03-13T11:41:00.512Z,99641.31
2019-03-13T11:43:32.433Z,99642.78
2019-03-13T11:46:19.327Z,99635.97
2019-03-13T11:49:02.579Z,99637.72
2019-03-13T11:51:40.577Z,99641.91
2019-03-13T11:54:28.816Z,99641.32
2019-03-13T11:57:10.332Z,99643.25
2019-03-13T11:59:43.297Z,99644.57
2019-03-13T12:02:31.123Z,99652.92
2019-03-13T12:05:10.500Z,99645.25
2019-03-13T12:07:48.441Z,99647.41
2019-03-13T12:10:35.058Z,99647.76
2019-03-13T12:13:13.013Z,99648.53
2019-03-13T12:15:55.074Z,99648.69
2019-03-13T12:18:43.196Z,99661.05
2019-03-13T12:21:31.368Z,99657.79
2019-03-13T12:24:09.291Z,99669.25
2019-03-13T12:26:57.501Z,99668.97
2019-03-13T12:29:32.308Z,99668.16
2019-03-13T12:32:10.166Z,99664.88
2019-03-13T12:34:51.033Z,99665.86
2019-03-13T12:37:22.875Z,99667.97
2019-03-13T12:40:13.090Z,99666.35
2019-03-13T12:43:01.402Z,99672.16
2019-03-13T12:45:37.900Z,99666.34
2019-03-13T12:48:16.901Z,99666.31
2019-03-13T12:50:49.012Z,99667.94
2019-03-13T12:53:33.319Z,99672.50
2019-03-13T12:56:08.024Z,99669.86
2019-03-13T12:58:42.547Z,99673.08
2019-03-13T13:01:17.355Z,99674.54
2019-03-13T13:03:55.054Z,99663.47
2019-03-13T13:06:30.000Z,99666.48
2019-03-13T13:09:13.916Z,99671.90
2019-03-13T13:11:52.015Z,99674.00
2019-03-13T13:14:38.811Z,99671.30
2019-03-13T13:17:29.160Z,99673.94
2019-03-13T13:19:59.494Z,99670.20
2019-03-13T13:22:29.768Z,99664.64
2019-03-13T13:25:00.416Z,99664.11
2019-03-13T13:27:30.913Z,99661.41
2019-03-13T13:30:01.372Z,99667.19
2019-03-13T13:32:31.743Z,99660.55
2019-03-13T13:35:02.024Z,99661.20
2019-03-13T13:37:32.318Z,99661.53
2019-03-13T13:40:02.705Z,99660.09
2019-03-13T13:42:33.239Z,99655.07
2019-03-13T13:45:05.102Z,99660.93
2019-03-13T13:47:36.270Z,99665.23
2019-03-13T13:50:10.972Z,99666.29
2019-03-13T13:52:43.784Z,99665.55
2019-03-13T13:55:14.241Z,99672.41
2019-03-13T13:57:46.081Z,99668.53
2019-03-13T14:00:16.539Z,99670.06
2019-03-13T14:02:46.934Z,99663.33
2019-03-13T14:05:17.329Z,99675.52
2019-03-13T14:07:47.724Z,99674.66
2019-03-13T14:10:18.045Z,99669.92
2019-03-13T14:12:48.395Z,99673.81
2019-03-13T14:15:18.707Z,99675.84
2019-03-13T14:17:49.002Z,99670.58
2019-03-13T14:20:19.402Z,99672.67
2019-03-13T14:22:49.814Z,99673.48
2019-03-13T14:25:20.184Z,99666.55
2019-03-13T14:27:51.571Z,99674.25
2019-03-13T14:30:23.162Z,99666.75
2019-03-13T14:32:53.617Z,99670.50
2019-03-13T14:35:24.079Z,99673.79
2019-03-13T14:37:54.470Z,99686.20
2019-03-13T14:40:26.158Z,99690.25
2019-03-13T14:42:56.545Z,99684.92
2019-03-13T14:45:26.933Z,99689.21
2019-03-13T14:47:59.223Z,99687.48
2019-03-13T14:50:31.247Z,99694.28
2019-03-13T14:53:04.372Z,99696.16
2019-03-13T14:55:36.329Z,99691.95
2019-03-13T14:58:11.863Z,99693.52
2019-03-13T15:00:49.355Z,99693.27
2019-03-13T15:03:19.787Z,99696.12
2019-03-13T15:05:52.219Z,99692.50
2019-03-13T15:08:24.070Z,99690.93
2019-03-13T15:10:55.621Z,99689.09
2019-03-13T15:13:33.633Z,99693.61
2019-03-13T15:16:05.699Z,99696.28
2019-03-13T15:18:37.621Z,99704.00
2019-03-13T15:21:08.013Z,99706.63
2019-03-13T15:23:40.478Z,99705.53
2019-03-13T15:26:14.033Z,99702.43
2019-03-13T15:28:47.263Z,99701.98
2019-03-13T15:31:19.812Z,99708.72
2019-03-13T15:33:52.655Z,99710.14
2019-03-13T15:36:25.505Z,99708.22
2019-03-13T15:38:59.032Z,99718.95
2019-03-13T15:41:30.234Z,99720.95
2019-03-13T15:44:04.764Z,99725.30
2019-03-13T15:46:39.039Z,99728.66
2019-03-13T15:49:09.460Z,99737.25
2019-03-13T15:51:42.431Z,99731.76
2019-03-13T15:54:14.513Z,99732.25
2019-03-13T15:56:46.478Z,99738.47
2019-03-13T15:59:20.555Z,99740.03
2019-03-13T16:01:54.838Z,99742.41
2019-03-13T16:04:26.801Z,99752.47
2019-03-13T16:06:59.929Z,99744.77
2019-03-13T16:09:30.787Z,99738.44
2019-03-13T16:12:08.447Z,99749.11
2019-03-13T16:14:38.986Z,99747.30
2019-03-13T16:17:11.665Z,99752.20
2019-03-13T16:19:43.593Z,99755.89
2019-03-13T16:22:17.057Z,99757.12
2019-03-13T16:24:47.575Z,99757.09
2019-03-13T16:27:17.989Z,99754.25
2019-03-13T16:29:48.998Z,99757.06
2019-03-13T16:32:28.366Z,99759.81
2019-03-13T16:35:00.554Z,99761.23
2019-03-13T16:37:30.981Z,99759.84
2019-03-13T16:40:04.944Z,99761.70
2019-03-13T16:42:39.074Z,99763.36
2019-03-13T16:45:13.812Z,99768.78
2019-03-13T16:47:46.298Z,99774.28
2019-03-13T16:50:21.322Z,99775.23
2019-03-13T16:52:52.553Z,99780.27
2019-03-13T16:55:23.749Z,99785.94
2019-03-13T16:58:00.145Z,99794.45
2019-03-13T17:00:35.240Z,99798.64
2019-03-13T17:03:06.755Z,99793.38
2019-03-13T17:05:40.167Z,99793.33
2019-03-13T17:08:12.140Z,99794.91
2019-03-13T17:10:46.112Z,99797.89
2019-03-13T17:13:16.871Z,99797.82
2019-03-13T17:15:51.214Z,99802.91
2019-03-13T17:18:31.254Z,99810.69
2019-03-13T17:21:01.739Z,99813.83
2019-03-13T17:23:32.146Z,99814.64
2019-03-13T17:26:06.255Z,99814.70
2019-03-13T17:28:37.636Z,99816.06
2019-03-13T17:31:08.404Z,99819.27
2019-03-13T17:33:41.029Z,99811.66
2019-03-13T17:36:11.484Z,99809.31
2019-03-13T17:38:44.761Z,99815.66
2019-03-13T17:41:17.622Z,99814.41
2019-03-13T17:43:51.185Z,99818.56
2019-03-13T17:46:22.442Z,99811.44
2019-03-13T17:48:56.446Z,99816.06
2019-03-13T17:51:26.851Z,99814.69
2019-03-13T17:54:05.017Z,99811.90
2019-03-13T17:56:38.755Z,99810.67
2019-03-13T17:59:12.195Z,99809.48
2019-03-13T18:01:44.754Z,99816.16
2019-03-13T18:04:18.049Z,99818.24
2019-03-13T18:06:48.474Z,99820.75
2019-03-13T18:09:21.525Z,99823.73
2019-03-13T18:11:57.951Z,99822.38
2019-03-13T18:14:31.990Z,99825.14
2019-03-13T18:17:03.333Z,99827.64
2019-03-13T18:19:38.695Z,99824.73
2019-03-13T18:22:12.200Z,99831.91
2019-03-13T18:24:44.354Z,99826.80
2019-03-13T18:27:14.723Z,99828.99
2019-03-13T18:29:47.433Z,99836.88
2019-03-13T18:32:23.877Z,99828.97
2019-03-13T18:34:55.840Z,99825.14
2019-03-13T18:37:26.243Z,99829.84
2019-03-13T18:39:58.256Z,99825.12
2019-03-13T18:42:28.738Z,99832.09
2019-03-13T18:45:02.710Z,99838.95
2019-03-13T18:47:33.631Z,99840.91
2019-03-13T18:50:08.361Z,99840.13
2019-03-13T18:52:41.916Z,99836.75
2019-03-13T18:55:24.349Z,99840.45
2019-03-13T18:57:57.668Z,99839.07
2019-03-13T19:00:35.150Z,99837.79
2019-03-13T19:03:09.831Z,99838.73
2019-03-13T19:05:43.333Z,99839.72
2019-03-13T19:08:18.713Z,99833.61
2019-03-13T19:10:50.778Z,99837.12
2019-03-13T19:13:21.470Z,99841.59
2019-03-13T19:15:54.813Z,99850.25
2019-03-13T19:18:28.311Z,99846.48
2019-03-13T19:21:05.488Z,99846.63
2019-03-13T19:23:37.321Z,99851.91
2019-03-13T19:26:19.249Z,99844.74
2019-03-13T19:28:56.304Z,99850.63
2019-03-13T19:31:27.960Z,99850.52
2019-03-13T19:34:00.167Z,99850.95
2019-03-13T19:36:30.606Z,99851.36
2019-03-13T19:39:04.806Z,99858.44
2019-03-13T19:41:39.066Z,99859.92
2019-03-13T19:44:11.131Z,99857.59
2019-03-13T19:46:42.169Z,99863.01
2019-03-13T19:49:15.754Z,99862.22
2019-03-13T19:51:54.174Z,99860.89
2019-03-13T19:54:28.730Z,99856.95
2019-03-13T19:57:00.822Z,99858.48
2019-03-13T19:59:36.855Z,99861.18
2019-03-13T20:02:08.772Z,99857.81
2019-03-13T20:04:47.564Z,99862.70
2019-03-13T20:07:19.511Z,99866.67
2019-03-13T20:09:50.189Z,99867.37
2019-03-13T20:12:25.736Z,99864.42
2019-03-13T20:15:02.339Z,99866.78
2019-03-13T20:17:41.664Z,99870.55
2019-03-13T20:20:22.942Z,99872.06
2019-03-13T20:23:10.440Z,99878.45
2019-03-13T20:25:41.866Z,99869.27
2019-03-13T20:28:14.067Z,99871.67
2019-03-13T20:30:47.485Z,99874.11
2019-03-13T20:33:22.326Z,99868.23
2019-03-13T20:35:53.182Z,99874.24
2019-03-13T20:38:25.873Z,99876.78
2019-03-13T20:40:57.309Z,99871.72
2019-03-13T20:43:27.747Z,99872.18
2019-03-13T20:45:58.196Z,99883.28
2019-03-13T20:48:30.295Z,99888.80
2019-03-13T20:51:00.795Z,99880.00
2019-03-13T20:53:31.189Z,99877.13
2019-03-13T20:56:02.589Z,99880.64
2019-03-13T20:58:33.045Z,99869.67
2019-03-13T21:01:04.237Z,99872.79
2019-03-13T21:03:36.165Z,99876.47
2019-03-13T21:06:06.653Z,99877.73
2019-03-13T21:08:38.608Z,99873.70
2019-03-13T21:11:12.674Z,99877.87
2019-03-13T21:13:43.065Z,99879.75
2019-03-13T21:16:13.559Z,99879.75
2019-03-13T21:18:47.070Z,99885.70
2019-03-13T21:21:21.833Z,99880.45
2019-03-13T21:23:53.855Z,99882.77
2019-03-13T21:26:25.814Z,99885.99
2019-03-13T21:28:57.761Z,99877.65
2019-03-13T21:31:31.397Z,99877.74
2019-03-13T21:34:01.786Z,99875.25
2019-03-13T21:36:34.462Z,99878.27
2019-03-13T21:39:05.664Z,99883.80
2019-03-13T21:41:38.697Z,99880.03
2019-03-13T21:44:09.088Z,99881.31
2019-03-13T21:46:39.472Z,99885.73
2019-03-13T21:49:11.421Z,99882.20
2019-03-13T21:51:42.092Z,99882.91
2019-03-13T21:54:12.500Z,99879.94
2019-03-13T21:56:46.028Z,99878.66
2019-03-13T21:59:18.687Z,99878.52
2019-03-13T22:01:53.248Z,99878.91
2019-03-13T22:04:25.963Z,99875.83
2019-03-13T22:07:01.975Z,99871.83
2019-03-13T22:09:32.376Z,99869.28
2019-03-13T22:12:05.885Z,99873.05
2019-03-13T22:14:38.601Z,99871.27
2019-03-13T22:17:10.061Z,99869.48
2019-03-13T22:19:40.610Z,99869.48
2019-03-13T22:22:15.034Z,99872.84
2019-03-13T22:24:46.476Z,99876.56
2019-03-13T22:27:22.983Z,99876.56
2019-03-13T22:30:08.593Z,99874.41
2019-03-13T22:32:38.984Z,99870.11
2019-03-13T22:35:11.664Z,99865.84
2019-03-13T22:37:42.092Z,99856.55
2019-03-13T22:40:26.986Z,99856.55
2019-03-13T22:42:57.379Z,99866.73
2019-03-13T22:45:27.912Z,99866.95
2019-03-13T22:50:46.142Z,99870.69
2019-03-13T22:53:19.262Z,99883.86
2019-03-13T22:55:51.728Z,99867.91
2019-03-13T22:58:24.535Z,99876.78
2019-03-13T23:00:57.797Z,99873.05
2019-03-13T23:03:30.755Z,99875.18
2019-03-13T23:06:01.222Z,99870.14
2019-03-13T23:08:31.641Z,99865.48
2019-03-13T23:11:03.641Z,99867.73
2019-03-13T23:13:34.054Z,99867.25
2019-03-13T23:16:04.500Z,99867.25
2019-03-13T23:18:35.589Z,99867.62
2019-03-13T23:21:05.989Z,99866.59
2019-03-13T23:23:38.131Z,99869.52
2019-03-13T23:26:08.733Z,99870.99
2019-03-13T23:28:39.451Z,99873.41
2019-03-13T23:31:09.835Z,99863.51
2019-03-13T23:33:40.237Z,99862.61
2019-03-13T23:36:15.042Z,99862.57
2019-03-13T23:38:49.852Z,99860.33
2019-03-13T23:41:22.522Z,99858.73
2019-03-13T23:43:55.730Z,99861.19
2019-03-13T23:46:28.982Z,99855.07
2019-03-13T23:48:59.402Z,99854.71
2019-03-13T23:51:33.241Z,99854.71
2019-03-13T23:54:10.143Z,99859.78
2019-03-13T23:56:40.594Z,99868.87
2019-03-13T23:59:15.312Z,99864.55
